Time;durP1;ratioP1;P1;durP2;ratioP2;P2;SDS_P1;SDS_P2;PMS_P1;PMS_P2;Temp;Humidity;BMP_temperature;BMP_pressure;BME280_temperature;BME280_humidity;BME280_pressure;Samples;Min_cycle;Max_cycle;Signal;HPM_P1;HPM_P2
2021/10/01 00:02:12;;;;;;;4.82;4.03;;;;;;;13.98;67.79;101714.22;5039736;28;20095;-42
2021/10/01 00:04:38;;;;;;;4.70;3.78;;;;;;;13.96;67.81;101706.28;5043323;28;20025;-43
2021/10/01 00:07:03;;;;;;;5.93;4.03;;;;;;;13.96;67.76;101702.75;5043915;28;20025;-42
2021/10/01 00:09:28;;;;;;;6.03;3.70;;;;;;;13.95;67.87;101699.22;5039309;28;20104;-43
2021/10/01 00:11:54;;;;;;;4.35;3.70;;;;;;;13.94;67.92;101702.75;5041667;28;20497;-43
2021/10/01 00:14:24;;;;;;;4.60;3.88;;;;;;;13.95;67.72;101698.34;5047682;28;20032;-42
2021/10/01 00:16:50;;;;;;;5.68;3.95;;;;;;;13.94;67.81;101692.13;5043542;28;20021;-42
2021/10/01 00:19:17;;;;;;;4.43;3.95;;;;;;;13.94;67.89;101692.13;5038411;28;20048;-42
2021/10/01 00:21:42;;;;;;;5.18;3.95;;;;;;;13.93;67.85;101678.88;5039896;28;20044;-43
2021/10/01 00:24:08;;;;;;;4.85;3.80;;;;;;;13.92;67.68;101688.63;5037676;28;20018;-42
2021/10/01 00:26:38;;;;;;;4.82;3.92;;;;;;;13.93;67.83;101689.50;5043757;28;20025;-42
2021/10/01 00:29:05;;;;;;;5.75;3.83;;;;;;;13.92;67.71;101683.34;5043715;28;20558;-42
2021/10/01 00:31:31;;;;;;;3.80;3.40;;;;;;;13.91;67.84;101676.25;5042080;28;20108;-42
2021/10/01 00:33:56;;;;;;;4.90;3.53;;;;;;;13.91;67.76;101670.94;5037232;28;20483;-42
2021/10/01 00:36:22;;;;;;;3.97;3.50;;;;;;;13.91;67.80;101676.25;5042623;28;20036;-43
2021/10/01 00:38:47;;;;;;;4.30;3.70;;;;;;;13.89;67.66;101670.09;5040929;28;20058;-42
2021/10/01 00:41:12;;;;;;;4.63;3.47;;;;;;;13.90;67.86;101669.19;5042324;28;20028;-42
2021/10/01 00:43:38;;;;;;;3.42;3.03;;;;;;;13.89;67.74;101672.75;5049721;28;20371;-43
2021/10/01 00:46:03;;;;;;;5.90;4.07;;;;;;;13.89;67.84;101667.44;5046735;28;20365;-42
2021/10/01 00:48:28;;;;;;;4.80;3.85;;;;;;;13.88;67.62;101665.69;5046576;28;20037;-41
2021/10/01 00:50:53;;;;;;;4.85;3.63;;;;;;;13.89;67.56;101666.53;5051221;28;20029;-43
2021/10/01 00:53:20;;;;;;;4.00;3.42;;;;;;;13.87;67.70;101663.91;5044244;28;20433;-42
2021/10/01 00:55:45;;;;;;;4.82;3.45;;;;;;;13.87;67.88;101652.44;5048400;28;20036;-42
2021/10/01 00:58:10;;;;;;;4.22;3.15;;;;;;;13.87;67.79;101663.03;5043253;28;20021;-43
2021/10/01 01:00:45;;;;;;;4.88;4.05;;;;;;;13.86;67.75;101651.53;5045733;28;20028;-43
2021/10/01 01:03:11;;;;;;;4.20;3.17;;;;;;;13.85;67.60;101657.75;5042590;28;20057;-43
2021/10/01 01:05:47;;;;;;;3.92;3.53;;;;;;;13.85;67.56;101655.94;5048466;28;20056;-42
2021/10/01 01:08:13;;;;;;;5.60;3.42;;;;;;;13.84;67.47;101653.34;5040817;28;20025;-41
2021/10/01 01:10:55;;;;;;;4.38;3.40;;;;;;;13.84;67.81;101653.34;5044139;28;20044;-43
2021/10/01 01:13:41;;;;;;;4.82;3.30;;;;;;;13.77;67.56;101636.56;5045963;28;20467;-42
2021/10/01 01:16:10;;;;;;;6.60;3.92;;;;;;;13.83;67.72;101651.56;5042421;28;20025;-43
2021/10/01 01:18:40;;;;;;;4.80;3.80;;;;;;;13.80;67.62;101649.81;5047203;28;20031;-42
2021/10/01 01:21:06;;;;;;;4.43;3.45;;;;;;;13.80;67.62;101647.16;5044529;28;20025;-43
2021/10/01 01:23:53;;;;;;;4.28;3.20;;;;;;;13.81;67.49;101648.06;5043560;28;20083;-42
2021/10/01 01:26:36;;;;;;;4.57;3.80;;;;;;;13.80;67.54;101646.28;5045507;28;20021;-43
2021/10/01 01:29:07;;;;;;;3.88;3.50;;;;;;;13.80;67.53;101648.91;5043969;28;20531;-42
2021/10/01 01:31:54;;;;;;;3.85;3.55;;;;;;;13.79;67.61;101639.22;5045126;28;20029;-43
2021/10/01 01:34:44;;;;;;;3.30;3.00;;;;;;;13.77;67.49;101643.66;5045850;28;20036;-42
2021/10/01 01:37:23;;;;;;;3.60;3.30;;;;;;;13.77;67.56;101635.72;5026552;28;20029;-42
2021/10/01 01:39:49;;;;;;;3.78;3.33;;;;;;;13.76;67.58;101629.53;5045647;28;20414;-42
2021/10/01 01:42:15;;;;;;;3.67;3.10;;;;;;;13.76;67.51;101639.22;5039752;28;20021;-42
2021/10/01 01:44:41;;;;;;;4.00;2.95;;;;;;;13.75;67.67;101642.78;5047550;28;20054;-42
2021/10/01 01:47:06;;;;;;;3.17;2.90;;;;;;;13.75;67.47;101648.09;5031968;28;20356;-42
2021/10/01 01:49:32;;;;;;;5.63;3.55;;;;;;;13.74;67.72;101647.19;5042582;28;20090;-42
2021/10/01 01:51:59;;;;;;;3.38;2.80;;;;;;;13.73;67.57;101641.03;5043501;28;20017;-43
2021/10/01 01:54:26;;;;;;;4.63;3.20;;;;;;;13.73;67.46;101645.44;5043349;28;20021;-42
2021/10/01 01:56:51;;;;;;;3.25;2.97;;;;;;;13.73;67.46;101641.03;5044422;28;20109;-42
2021/10/01 01:59:17;;;;;;;3.55;2.85;;;;;;;13.71;67.40;101641.94;5047308;28;20104;-42
2021/10/01 02:01:43;;;;;;;3.28;3.00;;;;;;;13.71;67.59;101637.50;5042022;28;20099;-43
2021/10/01 02:04:09;;;;;;;3.53;3.08;;;;;;;13.69;67.54;101641.94;5043477;28;20071;-42
2021/10/01 02:06:35;;;;;;;3.90;3.33;;;;;;;13.69;67.51;101641.94;5049042;28;20028;-41
2021/10/01 02:09:00;;;;;;;3.10;2.58;;;;;;;13.69;67.49;101647.25;5037872;28;20032;-41
2021/10/01 02:11:26;;;;;;;3.75;3.20;;;;;;;13.67;67.30;101632.25;5044245;28;20026;-41
2021/10/01 02:13:52;;;;;;;3.45;3.15;;;;;;;13.69;67.35;101641.06;5040388;28;20453;-41
2021/10/01 02:16:18;;;;;;;3.33;3.03;;;;;;;13.68;67.62;101634.00;5042902;28;20076;-41
2021/10/01 02:18:47;;;;;;;2.72;2.53;;;;;;;13.67;67.54;101638.41;5042351;28;20076;-41
2021/10/01 02:21:13;;;;;;;3.72;3.10;;;;;;;13.66;67.41;101631.34;5042884;28;20031;-41
2021/10/01 02:23:39;;;;;;;3.80;3.42;;;;;;;13.67;67.35;101630.44;5040362;28;20036;-41
2021/10/01 02:28:55;;;;;;;3.45;2.85;;;;;;;13.65;67.43;101621.66;5044878;28;20077;-41
2021/10/01 02:31:34;;;;;;;2.92;2.50;;;;;;;13.63;67.53;101618.13;5043387;28;20032;-41
2021/10/01 02:34:02;;;;;;;3.10;2.80;;;;;;;13.64;67.59;101619.88;5039049;28;20528;-41
2021/10/01 02:36:27;;;;;;;3.53;2.90;;;;;;;13.62;67.93;101616.38;5045164;28;20517;-41
2021/10/01 02:38:53;;;;;;;2.90;2.70;;;;;;;13.63;67.58;101611.94;5042495;28;20029;-41
2021/10/01 02:41:18;;;;;;;3.20;3.00;;;;;;;13.62;67.59;101616.38;5044472;28;20029;-41
2021/10/01 02:43:44;;;;;;;3.00;2.75;;;;;;;13.62;67.53;101604.88;5043043;28;20036;-40
2021/10/01 02:46:09;;;;;;;2.67;2.47;;;;;;;13.60;67.55;101603.13;5039165;28;20024;-41
2021/10/01 02:48:36;;;;;;;3.58;3.17;;;;;;;13.59;67.47;101600.47;5045071;28;20414;-41
2021/10/01 02:51:06;;;;;;;2.88;2.67;;;;;;;13.60;67.32;101604.88;5043650;28;20036;-41
2021/10/01 02:53:48;;;;;;;3.13;2.83;;;;;;;13.59;67.50;101598.72;5044865;28;20075;-41
2021/10/01 02:56:17;;;;;;;3.30;3.00;;;;;;;13.58;67.32;101607.53;5041218;28;20686;-41
2021/10/01 02:58:50;;;;;;;2.83;2.63;;;;;;;13.58;67.55;101602.22;5024396;28;20024;-42
2021/10/01 03:01:17;;;;;;;2.83;2.63;;;;;;;13.57;67.46;101594.31;5039153;28;20400;-41
2021/10/01 03:03:44;;;;;;;3.40;2.80;;;;;;;13.56;67.43;101592.53;5042874;28;20036;-41
2021/10/01 03:06:09;;;;;;;3.10;2.80;;;;;;;13.56;67.33;101584.59;5043454;28;20429;-41
2021/10/01 03:08:35;;;;;;;3.15;2.85;;;;;;;13.56;67.27;101584.59;5041522;28;20024;-41
2021/10/01 03:11:01;;;;;;;4.18;3.20;;;;;;;13.54;67.19;101579.28;5041771;28;20031;-41
2021/10/01 03:13:27;;;;;;;2.78;2.58;;;;;;;13.55;67.49;101580.19;5045874;28;20017;-41
2021/10/01 03:15:59;;;;;;;2.88;2.50;;;;;;;13.52;67.35;101567.84;5046989;28;20073;-41
2021/10/01 03:18:27;;;;;;;3.75;2.85;;;;;;;13.52;67.31;101574.91;5043678;28;20029;-41
2021/10/01 03:20:52;;;;;;;2.80;2.53;;;;;;;13.51;67.37;101576.69;5041708;28;20509;-41
2021/10/01 03:23:19;;;;;;;2.60;2.40;;;;;;;13.51;67.38;101575.81;5040754;28;20033;-41
2021/10/01 03:25:44;;;;;;;3.03;2.83;;;;;;;13.49;67.23;101567.84;5040796;28;20095;-41
2021/10/01 03:28:10;;;;;;;3.40;3.10;;;;;;;13.50;67.49;101574.91;5041195;28;20063;-41
2021/10/01 03:30:36;;;;;;;2.50;2.30;;;;;;;13.49;67.56;101572.25;5040573;28;20063;-41
2021/10/01 03:33:01;;;;;;;2.58;2.38;;;;;;;13.49;67.53;101569.63;5044920;28;20630;-41
2021/10/01 03:35:27;;;;;;;2.85;2.30;;;;;;;13.49;67.40;101566.97;5042192;28;20095;-41
2021/10/01 03:37:53;;;;;;;3.00;2.80;;;;;;;13.47;67.42;101574.88;5042250;28;20441;-41
2021/10/01 03:40:20;;;;;;;3.97;2.80;;;;;;;13.47;67.43;101564.28;5044918;28;20029;-41
2021/10/01 03:42:46;;;;;;;3.38;2.50;;;;;;;13.45;67.43;101566.97;5045552;28;20079;-41
2021/10/01 03:45:11;;;;;;;2.67;2.47;;;;;;;13.44;67.41;101570.50;5036421;28;20029;-41
2021/10/01 03:47:37;;;;;;;4.13;2.70;;;;;;;13.43;67.34;101565.19;5044808;28;20118;-41
2021/10/01 03:50:03;;;;;;;3.00;2.63;;;;;;;13.45;67.19;101571.38;5045012;28;20116;-41
2021/10/01 03:52:28;;;;;;;2.80;2.45;;;;;;;13.43;67.22;101558.16;5039561;28;20459;-41
2021/10/01 03:54:54;;;;;;;2.65;2.45;;;;;;;13.43;67.21;101552.84;5045959;28;20025;-41
2021/10/01 03:57:20;;;;;;;3.80;2.95;;;;;;;13.42;67.28;101536.97;5042518;28;20079;-41
2021/10/01 03:59:45;;;;;;;2.80;2.60;;;;;;;13.41;67.32;101537.84;5038611;28;20498;-41
2021/10/01 04:02:11;;;;;;;2.70;2.50;;;;;;;13.41;67.01;101538.72;5045129;28;20029;-41
2021/10/01 04:04:36;;;;;;;3.03;2.72;;;;;;;13.40;67.16;101529.00;5044856;28;20029;-41
2021/10/01 04:07:02;;;;;;;2.88;2.67;;;;;;;13.39;67.35;101535.22;5039746;28;20395;-41
2021/10/01 04:09:28;;;;;;;2.97;2.70;;;;;;;13.39;67.10;101537.88;5042763;28;20375;-41
2021/10/01 04:11:55;;;;;;;2.70;2.50;;;;;;;13.38;67.21;101524.63;5043629;28;20025;-41
2021/10/01 04:14:21;;;;;;;3.42;2.65;;;;;;;13.37;67.33;101526.38;5043922;28;20025;-41
2021/10/01 04:16:46;;;;;;;4.97;2.78;;;;;;;13.37;67.20;101520.22;5044756;28;20025;-42
2021/10/01 04:19:12;;;;;;;2.90;2.70;;;;;;;13.36;67.35;101521.97;5048455;28;20536;-41
2021/10/01 04:21:37;;;;;;;3.00;2.80;;;;;;;13.35;67.19;101522.88;5047612;28;20081;-41
2021/10/01 04:24:02;;;;;;;2.72;2.53;;;;;;;13.35;67.09;101517.59;5045196;28;20521;-41
2021/10/01 04:26:28;;;;;;;2.55;2.42;;;;;;;13.34;67.08;101521.13;5045974;28;20449;-41
2021/10/01 04:28:53;;;;;;;2.75;2.55;;;;;;;13.34;67.00;101507.88;5049310;28;20057;-41
2021/10/01 04:31:19;;;;;;;2.90;2.70;;;;;;;13.33;67.25;101514.06;5045755;28;20031;-41
2021/10/01 04:33:44;;;;;;;2.40;2.28;;;;;;;13.33;67.22;101511.41;5045912;28;20028;-41
2021/10/01 04:36:12;;;;;;;3.17;2.90;;;;;;;13.33;67.15;101508.75;5045876;28;20028;-41
2021/10/01 04:38:37;;;;;;;3.40;2.67;;;;;;;13.32;67.30;101512.28;5045032;28;20031;-41
2021/10/01 04:41:03;;;;;;;3.30;3.00;;;;;;;13.30;67.31;101509.66;5044082;28;20029;-41
2021/10/01 04:43:28;;;;;;;3.40;3.10;;;;;;;13.30;67.23;101509.66;5044447;28;20415;-41
2021/10/01 04:45:54;;;;;;;3.45;3.13;;;;;;;13.29;67.24;101504.38;5041943;28;20053;-41
2021/10/01 04:48:19;;;;;;;3.50;2.90;;;;;;;13.29;67.34;101502.59;5043038;28;20076;-41
2021/10/01 04:50:45;;;;;;;2.90;2.70;;;;;;;13.28;67.21;101505.28;5048713;28;20049;-41
2021/10/01 04:53:10;;;;;;;3.17;2.85;;;;;;;13.28;67.29;101500.84;5044984;28;20709;-41
2021/10/01 04:55:35;;;;;;;3.30;3.00;;;;;;;13.28;67.23;101499.97;5045422;28;20037;-41
2021/10/01 04:58:04;;;;;;;3.78;3.47;;;;;;;13.27;67.29;101498.22;5047889;28;20048;-41
2021/10/01 05:00:30;;;;;;;3.25;2.95;;;;;;;13.26;66.93;101504.38;5064088;28;20021;-40
2021/10/01 05:02:55;;;;;;;3.47;3.17;;;;;;;13.25;67.32;101506.19;5043434;28;20111;-41
2021/10/01 05:05:21;;;;;;;2.95;2.75;;;;;;;13.25;67.03;101510.59;5041697;28;20041;-41
2021/10/01 05:07:46;;;;;;;2.95;2.75;;;;;;;13.24;67.10;101503.53;5041208;28;20025;-41
2021/10/01 05:10:12;;;;;;;3.30;3.00;;;;;;;13.24;67.07;101508.84;5043268;28;20491;-41
2021/10/01 05:12:38;;;;;;;3.22;2.90;;;;;;;13.24;67.05;101508.84;5041691;28;20033;-41
2021/10/01 05:15:04;;;;;;;5.25;2.88;;;;;;;13.23;66.99;101507.09;5046257;28;20029;-41
2021/10/01 05:17:29;;;;;;;3.17;2.90;;;;;;;13.22;67.16;101511.50;5043807;28;20029;-41
2021/10/01 05:19:55;;;;;;;3.30;3.00;;;;;;;13.20;67.01;101503.53;5037203;28;20030;-41
2021/10/01 05:22:20;;;;;;;3.70;3.28;;;;;;;13.21;67.01;101501.78;5041845;28;20084;-42
2021/10/01 05:24:46;;;;;;;3.53;3.20;;;;;;;13.19;67.22;101509.75;5042818;28;20071;-41
2021/10/01 05:27:12;;;;;;;2.92;2.72;;;;;;;13.18;67.12;101500.00;5045075;28;20395;-41
2021/10/01 05:29:38;;;;;;;4.95;3.10;;;;;;;13.19;66.97;101507.09;5043644;28;20021;-41
2021/10/01 05:32:03;;;;;;;3.63;3.10;;;;;;;13.18;67.23;101510.59;5041393;28;20380;-41
2021/10/01 05:34:29;;;;;;;3.55;3.25;;;;;;;13.17;66.98;101500.91;5046649;28;20037;-41
2021/10/01 05:36:54;;;;;;;4.53;3.30;;;;;;;13.16;67.08;101496.50;5041752;28;20021;-41
2021/10/01 05:39:19;;;;;;;3.33;2.95;;;;;;;13.16;67.13;101495.63;5046073;28;20029;-41
2021/10/01 05:41:45;;;;;;;2.80;2.60;;;;;;;13.16;67.30;101490.31;5046939;28;20027;-41
2021/10/01 05:44:11;;;;;;;2.95;2.70;;;;;;;13.13;67.18;101485.94;5044344;28;20120;-41
2021/10/01 05:46:43;;;;;;;2.90;2.70;;;;;;;13.14;67.14;101498.28;5048795;28;20529;-40
2021/10/01 05:49:13;;;;;;;3.50;3.20;;;;;;;13.13;67.07;101491.22;5049442;28;20033;-42
2021/10/01 05:51:46;;;;;;;3.13;2.80;;;;;;;13.13;67.35;101491.22;5043255;28;20029;-40
2021/10/01 05:54:13;;;;;;;3.42;3.13;;;;;;;13.10;67.23;101488.59;5044347;28;20502;-41
2021/10/01 05:56:38;;;;;;;3.35;3.05;;;;;;;13.11;67.20;101493.03;5045150;28;20032;-41
2021/10/01 05:59:06;;;;;;;3.08;2.78;;;;;;;13.11;67.03;101486.84;5041342;28;20025;-40
2021/10/01 06:01:32;;;;;;;3.10;2.88;;;;;;;13.10;66.96;101488.59;5046694;28;20400;-41
2021/10/01 06:03:58;;;;;;;2.88;2.67;;;;;;;13.10;67.23;101491.25;5043893;28;20029;-41
2021/10/01 06:06:23;;;;;;;3.55;3.30;;;;;;;13.08;67.09;101493.91;5047963;28;20036;-41
2021/10/01 06:08:50;;;;;;;3.13;2.83;;;;;;;13.08;66.91;101493.03;5043040;28;20021;-41
2021/10/01 06:11:15;;;;;;;2.88;2.67;;;;;;;13.07;67.06;101501.84;5047198;28;20045;-40
2021/10/01 06:13:40;;;;;;;3.28;2.97;;;;;;;13.07;67.08;101501.84;5045572;28;20095;-41
2021/10/01 06:16:06;;;;;;;3.03;2.72;;;;;;;13.06;67.01;101494.81;5045848;28;20025;-41
2021/10/01 06:18:31;;;;;;;3.80;2.92;;;;;;;13.05;67.10;101488.66;5047534;28;20229;-41
2021/10/01 06:20:56;;;;;;;3.72;2.90;;;;;;;13.05;67.30;101488.66;5039596;28;20032;-41
2021/10/01 06:23:23;;;;;;;2.83;2.63;;;;;;;13.06;67.26;101489.50;5042467;28;20021;-42
2021/10/01 06:25:49;;;;;;;3.38;3.08;;;;;;;13.05;67.03;101477.16;5042100;28;20024;-41
2021/10/01 06:28:14;;;;;;;3.45;2.83;;;;;;;13.07;67.07;101478.91;5045245;28;20029;-40
2021/10/01 06:30:41;;;;;;;3.30;3.00;;;;;;;13.05;67.37;101477.16;5041019;28;20033;-40
2021/10/01 06:33:07;;;;;;;3.10;2.78;;;;;;;13.07;67.16;101478.03;5046884;28;20475;-41
2021/10/01 06:35:32;;;;;;;2.97;2.63;;;;;;;13.05;67.16;101477.16;5049026;28;20050;-40
2021/10/01 06:37:58;;;;;;;2.83;2.63;;;;;;;13.05;67.19;101474.53;5038937;28;20018;-41
2021/10/01 06:40:23;;;;;;;3.17;2.75;;;;;;;13.04;67.21;101475.41;5048272;28;20048;-40
2021/10/01 06:42:50;;;;;;;4.05;3.45;;;;;;;13.05;67.10;101477.16;5040870;28;20104;-42
2021/10/01 06:45:22;;;;;;;2.97;2.67;;;;;;;13.04;67.16;101470.97;5037904;28;20045;-41
2021/10/01 06:47:53;;;;;;;3.13;2.80;;;;;;;13.05;67.18;101469.22;5040521;28;20024;-40
2021/10/01 06:50:38;;;;;;;3.00;2.67;;;;;;;13.03;67.06;101469.22;5042543;28;20112;-41
2021/10/01 07:20:57;;;;;;;2.72;2.50;;;;;;;13.04;67.08;101464.81;5042124;28;20028;-41
2021/10/01 07:35:07;;;;;;;3.10;2.80;;;;;;;12.96;67.33;101465.75;5044921;28;20024;-40
2021/10/01 08:21:09;;;;;;;2.15;2.03;;;;;;;12.92;67.46;101429.59;5034796;28;20079;-41
2021/10/01 08:23:34;;;;;;;2.17;2.08;;;;;;;12.93;67.51;101427.81;5036710;28;20507;-41
2021/10/01 08:26:00;;;;;;;2.35;2.15;;;;;;;12.93;67.55;101436.63;5044183;28;20033;-40
2021/10/01 08:28:25;;;;;;;2.83;2.15;;;;;;;12.93;67.77;101430.44;5042662;28;20057;-41
2021/10/01 08:30:51;;;;;;;2.30;2.10;;;;;;;12.94;67.68;101430.44;5041162;28;20116;-41
2021/10/01 08:33:16;;;;;;;2.65;2.45;;;;;;;12.95;67.71;101439.28;5043681;28;20029;-41
2021/10/01 08:35:41;;;;;;;3.15;2.58;;;;;;;12.95;67.41;101421.59;5039867;28;20032;-40
2021/10/01 08:38:07;;;;;;;2.60;2.40;;;;;;;12.98;67.42;101422.50;5034905;28;20053;-40
2021/10/01 08:40:34;;;;;;;2.33;2.13;;;;;;;12.95;67.50;101418.09;5038490;28;20020;-41
2021/10/01 08:42:59;;;;;;;2.67;2.47;;;;;;;12.94;67.37;101411.91;5039303;28;20032;-41
2021/10/01 08:45:26;;;;;;;4.00;2.47;;;;;;;12.94;67.50;101411.91;5041340;28;20017;-41
2021/10/01 08:47:52;;;;;;;2.13;1.95;;;;;;;12.93;67.52;101410.16;5044087;28;20018;-41
2021/10/01 08:50:22;;;;;;;3.30;2.67;;;;;;;12.93;67.54;101404.88;5039544;28;20078;-40
2021/10/01 08:52:49;;;;;;;3.30;2.53;;;;;;;12.94;67.76;101403.97;5044069;28;20017;-40
2021/10/01 08:55:15;;;;;;;2.08;1.92;;;;;;;12.93;67.84;101404.88;5041098;28;20442;-41
2021/10/01 08:57:41;;;;;;;2.67;2.20;;;;;;;12.92;67.51;101403.13;5036990;28;20053;-41
2021/10/01 09:00:20;;;;;;;1.85;1.75;;;;;;;12.92;67.59;101391.63;5040904;28;20030;-41
2021/10/01 09:02:45;;;;;;;2.10;1.90;;;;;;;12.92;67.76;101391.63;5041295;28;20422;-42
2021/10/01 09:05:11;;;;;;;2.33;2.15;;;;;;;12.92;67.73;101391.63;5039431;28;20059;-41
2021/10/01 09:07:37;;;;;;;2.00;1.80;;;;;;;12.92;67.71;101389.00;5051245;28;20038;-41
2021/10/01 09:10:08;;;;;;;2.13;2.00;;;;;;;12.92;67.46;101391.63;5045466;28;20402;-41
2021/10/01 09:12:33;;;;;;;2.45;1.83;;;;;;;12.92;67.67;101381.94;5047078;28;20037;-41
2021/10/01 09:14:59;;;;;;;2.25;2.05;;;;;;;12.93;67.47;101383.69;5045272;28;20040;-41
2021/10/01 09:17:27;;;;;;;2.00;1.90;;;;;;;12.92;67.62;101383.69;5040311;28;20033;-43
2021/10/01 09:19:53;;;;;;;2.13;2.00;;;;;;;12.92;67.63;101387.22;5048279;28;20028;-41
2021/10/01 09:22:38;;;;;;;2.28;2.08;;;;;;;12.91;67.69;101380.16;5045061;28;20079;-41
2021/10/01 09:25:10;;;;;;;2.22;1.90;;;;;;;12.91;67.51;101385.44;5045860;28;20041;-41
2021/10/01 09:27:38;;;;;;;2.08;1.98;;;;;;;12.93;67.67;101386.34;5046593;28;20021;-43
2021/10/01 09:30:05;;;;;;;2.63;2.03;;;;;;;12.92;67.69;101381.03;5045738;28;20025;-41
2021/10/01 09:32:31;;;;;;;1.95;1.77;;;;;;;12.92;67.68;101381.94;5046584;28;20443;-41
2021/10/01 09:34:56;;;;;;;2.58;1.88;;;;;;;12.90;67.63;101362.53;5047284;28;20099;-40
2021/10/01 09:37:26;;;;;;;1.77;1.67;;;;;;;12.92;67.63;101367.81;5039252;28;20562;-43
2021/10/01 09:39:57;;;;;;;1.60;1.50;;;;;;;12.92;67.38;101378.41;5045021;28;20029;-40
2021/10/01 09:42:30;;;;;;;2.08;1.98;;;;;;;12.93;67.44;101366.91;5044864;28;20108;-41
2021/10/01 09:45:01;;;;;;;1.80;1.70;;;;;;;12.92;67.49;101366.06;5043912;28;20032;-42
2021/10/01 09:47:29;;;;;;;2.40;2.08;;;;;;;12.93;67.62;101367.81;5039992;28;20021;-41
2021/10/01 09:50:03;;;;;;;1.85;1.70;;;;;;;12.92;67.67;101358.09;5037403;28;20052;-40
2021/10/01 09:52:48;;;;;;;2.67;1.70;;;;;;;12.94;67.65;101352.81;5039023;28;20029;-43
2021/10/01 09:55:15;;;;;;;1.70;1.58;;;;;;;12.93;67.46;101351.91;5038032;28;20391;-41
2021/10/01 09:58:06;;;;;;;1.90;1.77;;;;;;;12.93;67.70;101356.31;5040499;28;20219;-41
2021/10/01 10:00:53;;;;;;;2.88;2.13;;;;;;;12.93;67.60;101356.31;5042036;28;20033;-41
2021/10/01 10:03:24;;;;;;;1.98;1.77;;;;;;;12.94;67.52;101356.31;5036216;28;20442;-41
2021/10/01 10:06:03;;;;;;;2.45;1.80;;;;;;;12.93;67.69;101351.91;5040434;28;20026;-41
2021/10/01 10:08:39;;;;;;;2.67;2.20;;;;;;;12.94;67.39;101350.16;5036213;28;20033;-41
2021/10/01 10:11:10;;;;;;;1.77;1.67;;;;;;;12.94;67.68;101342.22;5037943;28;20021;-41
2021/10/01 10:13:39;;;;;;;1.83;1.73;;;;;;;12.94;67.74;101340.44;5041746;28;20113;-41
2021/10/01 10:16:25;;;;;;;1.83;1.73;;;;;;;12.97;67.50;101344.81;5040962;28;20071;-42
2021/10/01 10:18:57;;;;;;;2.30;1.83;;;;;;;12.94;67.67;101336.91;5039975;28;20029;-41
2021/10/01 10:21:23;;;;;;;2.38;1.85;;;;;;;12.94;67.48;101337.78;5041659;28;20052;-41
2021/10/01 10:23:48;;;;;;;3.03;1.80;;;;;;;12.96;67.61;101343.06;5043758;28;20072;-41
2021/10/01 10:26:14;;;;;;;2.10;1.90;;;;;;;12.94;67.44;101332.47;5041581;28;20055;-41
2021/10/01 10:28:41;;;;;;;1.85;1.65;;;;;;;12.94;67.78;101327.19;5047359;28;20032;-40
2021/10/01 10:31:08;;;;;;;2.63;2.00;;;;;;;12.95;67.74;101331.59;5038835;28;20044;-41
2021/10/01 10:33:44;;;;;;;2.15;2.05;;;;;;;12.96;67.49;101325.41;5041948;28;20761;-41
2021/10/01 10:36:35;;;;;;;1.60;1.50;;;;;;;12.95;67.68;101315.69;5040727;28;20104;-42
2021/10/01 10:39:16;;;;;;;1.77;1.67;;;;;;;12.96;67.64;101309.53;5040867;28;20021;-41
2021/10/01 10:42:08;;;;;;;1.95;1.85;;;;;;;12.95;67.66;101307.75;5042882;28;20036;-42
2021/10/01 10:44:45;;;;;;;2.70;1.90;;;;;;;12.96;67.81;101301.59;5044739;28;20539;-41
2021/10/01 10:47:11;;;;;;;1.80;1.70;;;;;;;12.98;67.75;101295.41;5040912;28;20049;-42
2021/10/01 10:49:37;;;;;;;1.90;1.80;;;;;;;12.96;67.74;101296.28;5047532;28;20033;-41
2021/10/01 10:52:06;;;;;;;1.77;1.40;;;;;;;12.98;67.69;101290.09;5041785;28;20507;-40
2021/10/01 10:54:34;;;;;;;1.85;1.75;;;;;;;12.96;67.58;101292.75;5042124;28;20025;-41
2021/10/01 10:57:21;;;;;;;3.75;1.90;;;;;;;12.98;67.56;101285.69;5042084;28;20026;-41
2021/10/01 10:59:48;;;;;;;1.73;1.63;;;;;;;12.98;67.67;101290.09;5040652;28;20041;-41
2021/10/01 11:02:30;;;;;;;2.88;2.00;;;;;;;12.99;67.64;101283.91;5045779;28;20037;-40
2021/10/01 11:05:14;;;;;;;1.65;1.55;;;;;;;12.99;67.67;101274.19;5044369;28;20034;-42
2021/10/01 11:07:56;;;;;;;1.80;1.60;;;;;;;12.99;67.55;101263.59;5038946;28;20025;-41
2021/10/01 11:10:41;;;;;;;2.70;1.92;;;;;;;13.00;67.68;101267.16;5045989;28;20409;-40
2021/10/01 11:13:18;;;;;;;1.85;1.75;;;;;;;13.01;67.43;101258.31;5044552;28;20035;-41
2021/10/01 11:16:09;;;;;;;2.17;1.95;;;;;;;13.00;67.54;101254.75;5044052;28;20044;-40
2021/10/01 11:18:46;;;;;;;2.10;1.90;;;;;;;13.01;67.67;101248.56;5036748;28;20022;-41
2021/10/01 11:21:27;;;;;;;1.77;1.67;;;;;;;13.01;67.69;101255.66;5042713;28;20025;-41
2021/10/01 11:24:06;;;;;;;2.30;2.08;;;;;;;13.02;67.79;101247.69;5041054;28;20076;-41
2021/10/01 11:26:35;;;;;;;2.00;1.90;;;;;;;13.03;67.54;101251.19;5040247;28;20033;-41
2021/10/01 11:29:02;;;;;;;1.77;1.67;;;;;;;13.03;67.74;101251.19;5036252;28;20509;-41
2021/10/01 11:31:42;;;;;;;1.77;1.67;;;;;;;13.04;67.50;101250.34;5022985;28;20116;-41
2021/10/01 11:34:07;;;;;;;2.05;1.80;;;;;;;13.03;67.35;101256.50;5038983;28;20025;-41
2021/10/01 11:36:37;;;;;;;1.83;1.73;;;;;;;13.04;67.51;101242.38;5040418;28;20085;-41
2021/10/01 11:39:11;;;;;;;2.05;1.90;;;;;;;13.04;67.42;101237.94;5041352;28;20033;-41
2021/10/01 11:41:41;;;;;;;2.53;1.70;;;;;;;13.04;67.70;101242.38;5041051;28;20021;-42
2021/10/01 11:44:08;;;;;;;1.77;1.67;;;;;;;13.05;67.48;101238.84;5043003;28;20032;-41
2021/10/01 11:46:40;;;;;;;2.33;2.13;;;;;;;13.05;67.49;101228.25;5042153;28;20061;-41
2021/10/01 11:49:16;;;;;;;2.30;1.80;;;;;;;13.05;67.73;101223.84;5037962;28;20025;-41
2021/10/01 11:51:41;;;;;;;1.75;1.65;;;;;;;13.06;67.36;101211.47;5035824;28;20028;-41
2021/10/01 11:54:09;;;;;;;2.05;1.80;;;;;;;13.06;67.56;101224.69;5041665;28;20021;-41
2021/10/01 11:56:34;;;;;;;2.90;1.70;;;;;;;13.06;67.46;101220.28;5039685;28;20053;-42
2021/10/01 11:59:00;;;;;;;2.15;1.90;;;;;;;13.07;67.54;101215.84;5040271;28;20090;-41
2021/10/01 12:01:25;;;;;;;1.92;1.83;;;;;;;13.07;67.42;101213.19;5043073;28;20060;-40
2021/10/01 12:03:58;;;;;;;2.00;1.90;;;;;;;13.07;67.42;101199.97;5042477;28;20025;-41
2021/10/01 12:06:25;;;;;;;3.38;1.80;;;;;;;13.08;67.43;101209.69;5040869;28;20021;-42
2021/10/01 12:08:55;;;;;;;1.98;1.77;;;;;;;13.08;67.52;101191.16;5041644;28;20022;-41
2021/10/01 12:11:26;;;;;;;2.38;2.17;;;;;;;13.08;67.63;101191.16;5041918;28;20025;-42
2021/10/01 12:13:51;;;;;;;1.92;1.67;;;;;;;13.09;67.44;101182.31;5036708;28;20031;-41
2021/10/01 12:16:17;;;;;;;1.67;1.58;;;;;;;13.08;67.61;101175.25;5042804;28;20108;-41
2021/10/01 12:18:44;;;;;;;1.90;1.80;;;;;;;13.09;67.53;101169.06;5036079;28;20061;-41
2021/10/01 12:21:14;;;;;;;2.05;1.67;;;;;;;13.10;67.65;101173.44;5037624;28;20022;-41
2021/10/01 12:23:41;;;;;;;3.33;2.00;;;;;;;13.10;67.71;101168.16;5036841;28;20056;-41
2021/10/01 12:26:29;;;;;;;2.05;1.63;;;;;;;13.10;67.70;101157.56;5039880;28;20753;-43
2021/10/01 12:28:57;;;;;;;1.70;1.60;;;;;;;13.10;67.46;101152.28;5037887;28;20491;-41
2021/10/01 12:31:22;;;;;;;2.65;1.70;;;;;;;13.11;67.67;101159.34;5040257;28;20064;-41
2021/10/01 12:33:48;;;;;;;2.13;1.80;;;;;;;13.12;67.51;101155.78;5037548;28;20342;-41
2021/10/01 12:36:17;;;;;;;2.47;2.25;;;;;;;13.12;67.55;101141.66;5041868;28;20029;-40
2021/10/01 12:38:43;;;;;;;1.80;1.70;;;;;;;13.14;67.66;101147.81;5039761;28;20446;-40
2021/10/01 12:41:15;;;;;;;2.33;1.90;;;;;;;13.13;67.66;101136.34;5040819;28;20554;-41
2021/10/01 12:43:50;;;;;;;2.08;1.98;;;;;;;13.14;67.79;101147.81;5042378;28;20040;-41
2021/10/01 12:47:01;;;;;;;1.60;1.50;;;;;;;13.14;67.58;101138.09;5042393;28;20483;-41
2021/10/01 12:49:29;;;;;;;1.80;1.60;;;;;;;13.14;67.79;101137.22;5039797;28;20056;-42
2021/10/01 12:52:11;;;;;;;1.70;1.60;;;;;;;13.15;67.73;101139.88;5043524;28;20031;-40
2021/10/01 12:54:52;;;;;;;2.05;1.70;;;;;;;13.15;67.56;101129.28;5036035;28;20028;-41
2021/10/01 12:57:34;;;;;;;1.98;1.70;;;;;;;13.16;67.78;101128.38;5039811;28;20050;-40
2021/10/01 13:00:02;;;;;;;2.00;1.90;;;;;;;13.16;67.67;101119.53;5034784;28;20051;-42